Hiroshima Airport
RJOA : now visible

Airfield :











YOU CAN JOIN US ON...

 
LOGIN :

Register | Disclaimer

   EN    FR    IT 

 









Legend :    VFR   Marginal VFR   IFR   Intensive IFR   Very Intensive IFR
Visi :
Ceiling :
>= 8 km
>= 3000ft
5 to 8 km
1000 to 3000 ft
1500m to 5 km
500 to 1000 ft
800 to 1500m
200 to 500 ft
< 800m
< 200 ft
Symbols :   Thunderstorms  Fog  Heavy snow  Heavy precipitations  Wind > 20 kt






- Airport Elevation : 1088 ft
- IATA code : HIJ


RJOA - Hiroshima

CURRENT METAR :
  • 060920Z 21009G20KT 150V250 3000 SHRA BCFG BR FEW000 SCT002 BKN004 22/22 Q1006 RMK 1ST000 3ST002 5ST004 A2971 FG SE-S AND SW

EXPIRED METARs :
  • 060900Z 21006KT 2500 -SHRA BCFG BR FEW000 SCT002 BKN004 22/22 Q1005
  • 060848Z 21005KT 150V260 2000 R10/1200VP1800U -SHRA BCFG BR FEW000 SCT001 BKN003 22/22 Q1006 RMK 1ST000 3ST001 5ST003 A2971 FG ALL QUAD
  • 060840Z 18007KT 0400 R10/1200VP1800D SHRA FG VV001 22/22 Q1006 RMK A2971
  • 060824Z 15003KT 090V210 1200 R10/1100VP1800U SHRA BCFG BR FEW000 SCT002 BKN004 22/22 Q1005 RMK 1ST000 3ST002 5ST004 A2969 FG ALL QUAD
  • 060818Z VRB02KT 1600 R10/1100VP1800D SHRA BCFG BR FEW000 SCT002 BKN003 22/22 Q1005 RMK 1ST000 3ST002 5ST003 A2969 FG ALL QUAD
  • 060811Z VRB03KT 1400 R10/P1800N +SHRA BCFG BR FEW000 SCT001 BKN003 22/22 Q1005 RMK 1ST000 3ST001 5ST003 A2970 FG ALL QUAD
  • 060800Z 19004KT 140V240 1200 R10/P1800N +SHRA BCFG BR FEW000 SCT001 BKN002 22/22 Q1005
  • 060741Z 18006KT 130V220 1200 R10/P1800N SHRA BCFG BR FEW000 SCT001 BKN003 22/22 Q1005 RMK 1ST000 3ST001 5ST003 A2969 FG ALL QUAD
  • 060735Z 19007KT 130V230 0800 R10/0900VP1800U -SHRA FG FEW000 SCT001 BKN003 22/22 Q1005 RMK 1ST000 3ST001 5ST003 A2970
  • 060727Z 16005KT 100V220 1200 R10/0900VP1800D SHRA BCFG BR FEW000 SCT001 BKN003 22/22 Q1005 RMK 1ST000 3ST001 5ST003 A2969 FG ALL QUAD
  • 060700Z 19006KT 150V240 1200 R10/1800U SHRA BCFG BR FEW000 SCT001 BKN003 22/22 Q1005

TAF AMD TAF RJOA
Valid from the 06 at 08:00 until the 07 at 12:00 UTC


060854Z 0608/0712 23005KT 2000 -SHRA BR BCFG FEW000 SCT002 BKN008
TEMPO 0608/0615 0500 SHRA FG FEW000 SCT001 BKN003
TEMPO 0615/0618 0500 -SHRA FG FEW000 SCT001 BKN003
TEMPO 0618/0700 0700 -SHRA FG FEW000 SCT001 BKN003
TEMPO 0700/0709 1500 SHRA BR BCFG FEW000 SCT001 BKN003
RJJJ FIR / Asia



MET'MAP, your aeronautical weather chart ! - Copyright ORBIFLY December 2007 - Disclaimer

ORBIFLY MET'MAP TEAM :

Programming & Development : Alexandra Zaïnal
Concept & original design : Baudouin d'Aumeries
Assistance for programming : Marc-Olivier Méhu
Technical & hardware support : Manuel Goepfert

Contact : metmap@orbifly.com




SOURCES & CREDITS :

   NOAA       Earth
Advisory